createdAt,value
2023-04-13T00:01:57.671Z,9.50
2023-04-13T00:04:44.548Z,9.40
2023-04-13T00:07:30.972Z,9.40
2023-04-13T00:10:18.931Z,9.30
2023-04-13T00:13:08.847Z,9.30
2023-04-13T00:15:55.790Z,9.30
2023-04-13T00:18:42.413Z,9.30
2023-04-13T00:21:28.804Z,9.30
2023-04-13T00:24:16.088Z,9.30
2023-04-13T00:27:02.760Z,9.30
2023-04-13T00:29:50.567Z,9.20
2023-04-13T00:32:38.671Z,9.20
2023-04-13T00:35:26.774Z,9.20
2023-04-13T00:38:13.752Z,9.20
2023-04-13T00:41:02.198Z,9.10
2023-04-13T00:43:48.864Z,9.10
2023-04-13T00:46:36.971Z,9.10
2023-04-13T00:49:24.062Z,9.10
2023-04-13T00:52:11.985Z,9.10
2023-04-13T00:54:59.285Z,9.10
2023-04-13T00:57:45.958Z,9.10
2023-04-13T01:00:32.910Z,9.10
2023-04-13T01:03:21.381Z,9.00
2023-04-13T01:06:18.097Z,9.00
2023-04-13T01:09:09.856Z,9.00
2023-04-13T01:12:04.154Z,9.10
2023-04-13T01:14:57.940Z,9.10
2023-04-13T01:17:56.959Z,9.10
2023-04-13T01:20:47.525Z,9.10
2023-04-13T01:23:50.484Z,9.10
2023-04-13T01:26:45.819Z,9.00
2023-04-13T01:29:35.172Z,9.00
2023-04-13T01:32:22.516Z,9.00
2023-04-13T01:35:10.716Z,9.00
2023-04-13T01:37:59.641Z,9.00
2023-04-13T01:40:47.030Z,9.00
2023-04-13T01:43:35.002Z,9.00
2023-04-13T01:46:30.926Z,8.90
2023-04-13T01:49:48.273Z,8.90
2023-04-13T01:52:52.935Z,8.80
2023-04-13T01:55:42.069Z,8.70
2023-04-13T01:58:33.504Z,8.80
2023-04-13T02:01:26.896Z,8.80
2023-04-13T02:04:14.082Z,8.70
2023-04-13T02:07:03.681Z,8.70
2023-04-13T02:09:55.292Z,8.70
2023-04-13T02:12:43.081Z,8.70
2023-04-13T02:15:29.741Z,8.70
2023-04-13T02:18:17.455Z,8.70
2023-04-13T02:21:09.146Z,8.70
2023-04-13T02:23:56.205Z,8.70
2023-04-13T02:26:43.572Z,8.70
2023-04-13T02:29:30.608Z,8.70
2023-04-13T02:32:17.581Z,8.80
2023-04-13T02:35:08.491Z,8.80
2023-04-13T02:37:55.961Z,8.80
2023-04-13T02:40:43.142Z,8.70
2023-04-13T02:43:31.271Z,8.70
2023-04-13T02:46:18.369Z,8.70
2023-04-13T02:49:05.822Z,8.70
2023-04-13T02:52:00.524Z,8.70
2023-04-13T02:55:02.778Z,8.70
2023-04-13T02:57:57.944Z,8.70
2023-04-13T03:00:45.840Z,8.80
2023-04-13T03:03:34.551Z,8.70
2023-04-13T03:06:22.838Z,8.70
2023-04-13T03:09:16.125Z,8.70
2023-04-13T03:12:09.119Z,8.80
2023-04-13T03:14:57.242Z,8.70
2023-04-13T03:17:44.665Z,8.80
2023-04-13T03:20:36.615Z,8.70
2023-04-13T03:23:23.469Z,8.80
2023-04-13T03:26:11.691Z,8.70
2023-04-13T03:28:58.565Z,8.70
2023-04-13T03:31:46.433Z,8.70
2023-04-13T03:34:33.236Z,8.70
2023-04-13T03:37:29.743Z,8.60
2023-04-13T03:40:19.051Z,8.60
2023-04-13T03:43:11.882Z,8.70
2023-04-13T03:46:04.326Z,8.80
2023-04-13T03:48:52.156Z,8.70
2023-04-13T03:51:43.895Z,8.80
2023-04-13T03:54:30.988Z,8.80
2023-04-13T03:57:21.403Z,8.80
2023-04-13T04:00:14.033Z,8.80
2023-04-13T04:03:04.539Z,8.80
2023-04-13T04:05:59.025Z,8.80
2023-04-13T04:08:49.806Z,8.80
2023-04-13T04:11:56.722Z,8.80
2023-04-13T04:14:55.668Z,8.80
2023-04-13T04:17:48.292Z,8.80
2023-04-13T04:20:35.342Z,8.70
2023-04-13T04:23:23.133Z,8.70
2023-04-13T04:26:17.879Z,8.80
2023-04-13T04:29:14.755Z,8.80
2023-04-13T04:32:01.965Z,8.70
2023-04-13T04:34:53.014Z,8.70
2023-04-13T04:37:41.241Z,8.70
2023-04-13T04:40:35.739Z,8.80
2023-04-13T04:43:27.158Z,8.80
2023-04-13T04:46:16.206Z,8.70
2023-04-13T04:49:09.044Z,8.80
2023-04-13T04:51:58.888Z,8.70
2023-04-13T04:54:45.680Z,8.70
2023-04-13T04:57:33.712Z,8.80
2023-04-13T05:00:21.836Z,8.80
2023-04-13T05:03:20.671Z,8.70
2023-04-13T05:06:12.963Z,8.70
2023-04-13T05:09:01.957Z,8.70
2023-04-13T05:11:50.273Z,8.60
2023-04-13T05:14:39.371Z,8.70
2023-04-13T05:17:26.718Z,8.70
2023-04-13T05:20:13.849Z,8.70
2023-04-13T05:23:21.474Z,8.70
2023-04-13T05:26:16.597Z,8.80
2023-04-13T05:29:04.560Z,8.70
2023-04-13T05:31:54.835Z,8.70
2023-04-13T05:34:41.706Z,8.80
2023-04-13T05:37:33.007Z,8.80
2023-04-13T05:40:21.247Z,8.70
2023-04-13T05:43:09.964Z,8.80
2023-04-13T05:46:03.948Z,8.80
2023-04-13T05:48:51.478Z,8.80
2023-04-13T05:51:39.719Z,8.90
2023-04-13T05:54:27.410Z,8.90
2023-04-13T05:57:14.162Z,8.80
2023-04-13T06:00:10.364Z,8.80
2023-04-13T06:03:01.454Z,8.90
2023-04-13T06:05:49.332Z,8.90
2023-04-13T06:08:36.264Z,8.80
2023-04-13T06:11:22.683Z,8.90
2023-04-13T06:14:08.979Z,8.90
2023-04-13T06:16:57.505Z,9.00
2023-04-13T06:19:44.585Z,9.00
2023-04-13T06:22:31.870Z,9.00
2023-04-13T06:25:18.478Z,9.00
2023-04-13T06:28:06.610Z,9.00
2023-04-13T06:30:58.036Z,9.20
2023-04-13T06:33:46.895Z,9.20
2023-04-13T06:36:34.590Z,9.20
2023-04-13T06:39:22.648Z,9.30
2023-04-13T06:42:17.507Z,9.30
2023-04-13T06:45:23.120Z,9.40
2023-04-13T06:48:11.423Z,9.30
2023-04-13T06:51:00.955Z,9.50
2023-04-13T06:53:53.511Z,10.50
2023-04-13T06:56:40.347Z,11.40
2023-04-13T06:59:27.295Z,11.80
2023-04-13T07:02:14.879Z,12.10
2023-04-13T07:05:02.526Z,11.80
2023-04-13T07:07:51.348Z,11.60
2023-04-13T07:10:40.813Z,11.30
2023-04-13T07:13:35.604Z,11.10
2023-04-13T07:16:23.455Z,11.50
2023-04-13T07:19:11.703Z,11.50
2023-04-13T07:22:00.451Z,11.40
2023-04-13T07:24:48.583Z,11.50
2023-04-13T07:27:38.726Z,11.30
2023-04-13T07:30:25.884Z,11.40
2023-04-13T07:33:13.143Z,11.20
2023-04-13T07:36:00.312Z,11.10
2023-04-13T07:38:50.299Z,11.00
2023-04-13T07:41:40.057Z,11.40
2023-04-13T07:44:29.663Z,12.10
2023-04-13T07:47:16.843Z,12.90
2023-04-13T07:50:07.091Z,12.90
2023-04-13T07:52:54.738Z,13.20
2023-04-13T07:55:43.259Z,13.10
2023-04-13T07:58:31.422Z,13.30
2023-04-13T08:01:18.420Z,13.90
2023-04-13T08:04:05.289Z,14.10
2023-04-13T08:06:52.056Z,14.20
2023-04-13T08:09:40.748Z,14.40
2023-04-13T08:12:27.566Z,13.70
2023-04-13T08:15:15.770Z,13.10
2023-04-13T08:18:03.808Z,12.90
2023-04-13T08:20:51.197Z,12.70
2023-04-13T08:23:41.650Z,12.50
2023-04-13T08:26:28.474Z,12.00
2023-04-13T08:29:19.400Z,11.90
2023-04-13T08:32:08.089Z,12.00
2023-04-13T08:34:55.825Z,12.00
2023-04-13T08:37:42.526Z,12.30
2023-04-13T08:40:29.386Z,12.80
2023-04-13T08:43:17.517Z,13.00
2023-04-13T08:46:05.030Z,12.80
2023-04-13T08:48:56.665Z,12.90
2023-04-13T08:51:51.347Z,13.70
2023-04-13T08:54:39.893Z,14.60
2023-04-13T08:57:36.038Z,15.00
2023-04-13T09:00:23.780Z,15.50
2023-04-13T09:03:14.698Z,15.90
2023-04-13T09:06:11.396Z,16.50
2023-04-13T09:09:01.330Z,16.30
2023-04-13T09:11:51.755Z,16.40
2023-04-13T09:14:39.235Z,16.60
2023-04-13T09:17:27.570Z,16.20
2023-04-13T09:20:18.522Z,16.20
2023-04-13T09:23:17.761Z,15.90
2023-04-13T09:26:09.080Z,15.70
2023-04-13T09:28:58.137Z,15.30
2023-04-13T09:31:45.979Z,15.20
2023-04-13T09:34:32.773Z,14.90
2023-04-13T09:37:19.595Z,14.30
2023-04-13T09:40:13.116Z,13.70
2023-04-13T09:43:01.294Z,13.50
2023-04-13T09:45:48.389Z,13.70
2023-04-13T09:48:35.338Z,14.00
2023-04-13T09:51:21.805Z,14.30
2023-04-13T09:54:08.938Z,14.50
2023-04-13T09:56:57.831Z,14.90
2023-04-13T09:59:44.897Z,14.40
2023-04-13T10:02:32.556Z,13.70
2023-04-13T10:05:20.606Z,13.20
2023-04-13T10:08:08.744Z,12.90
2023-04-13T10:10:55.465Z,13.30
2023-04-13T10:13:50.487Z,13.90
2023-04-13T10:16:56.762Z,14.10
2023-04-13T10:19:46.831Z,14.40
2023-04-13T10:22:33.455Z,14.60
2023-04-13T10:25:32.049Z,15.00
2023-04-13T10:28:20.303Z,15.00
2023-04-13T10:31:08.877Z,15.20
2023-04-13T10:33:57.163Z,15.10
2023-04-13T10:36:46.962Z,14.70
2023-04-13T10:39:35.865Z,14.70
2023-04-13T10:42:22.363Z,15.10
2023-04-13T10:45:18.459Z,15.40
2023-04-13T10:48:07.516Z,15.20
2023-04-13T10:50:59.456Z,15.50
2023-04-13T10:53:46.911Z,15.00
2023-04-13T10:56:33.837Z,14.30
2023-04-13T10:59:20.457Z,13.90
2023-04-13T11:02:11.346Z,13.80
2023-04-13T11:05:00.489Z,14.00
2023-04-13T11:07:55.403Z,13.70
2023-04-13T11:10:42.400Z,14.00
2023-04-13T11:13:29.932Z,14.20
2023-04-13T11:16:16.706Z,14.30
2023-04-13T11:19:04.410Z,14.70
2023-04-13T11:21:57.928Z,14.80
2023-04-13T11:24:45.109Z,14.80
2023-04-13T11:27:32.380Z,14.50
2023-04-13T11:30:23.241Z,14.30
2023-04-13T11:33:11.751Z,14.40
2023-04-13T11:36:00.136Z,14.30
2023-04-13T11:38:49.676Z,14.50
2023-04-13T11:41:41.109Z,14.00
2023-04-13T11:44:27.521Z,13.90
2023-04-13T11:47:18.533Z,14.00
2023-04-13T11:50:06.209Z,14.10
2023-04-13T11:52:56.755Z,13.60
2023-04-13T11:55:52.791Z,13.30
2023-04-13T11:58:40.473Z,13.50
2023-04-13T12:01:33.749Z,13.40
2023-04-13T12:04:21.192Z,13.40
2023-04-13T12:07:14.016Z,13.40
2023-04-13T12:10:06.015Z,13.10
2023-04-13T12:13:16.139Z,13.40
2023-04-13T12:16:10.566Z,14.30
2023-04-13T12:19:09.535Z,14.90
2023-04-13T12:21:57.922Z,14.80
2023-04-13T12:24:45.925Z,14.40
2023-04-13T12:27:40.982Z,14.60
2023-04-13T12:30:28.918Z,14.80
2023-04-13T12:33:15.495Z,14.60
2023-04-13T12:36:02.640Z,14.10
2023-04-13T12:38:49.396Z,13.80
2023-04-13T12:41:36.066Z,14.20
2023-04-13T12:44:22.737Z,14.80
2023-04-13T12:47:10.988Z,15.50
2023-04-13T12:49:57.768Z,15.30
2023-04-13T12:52:45.269Z,15.00
2023-04-13T12:55:32.054Z,15.10
2023-04-13T12:58:18.729Z,15.10
2023-04-13T13:01:05.722Z,14.90
2023-04-13T13:03:54.161Z,14.20
2023-04-13T13:06:40.699Z,13.80
2023-04-13T13:09:27.368Z,13.40
2023-04-13T13:12:14.246Z,13.00
2023-04-13T13:15:01.316Z,13.20
2023-04-13T13:17:47.751Z,13.20
2023-04-13T13:20:41.071Z,13.40
2023-04-13T13:23:27.714Z,13.50
2023-04-13T13:29:05.019Z,14.10
2023-04-13T13:31:51.659Z,14.00
2023-04-13T13:34:38.294Z,14.00
2023-04-13T13:37:27.229Z,13.80
2023-04-13T13:40:14.349Z,13.70
2023-04-13T13:43:02.569Z,13.30
2023-04-13T13:45:49.236Z,13.20
2023-04-13T13:48:36.252Z,13.00
2023-04-13T13:51:43.382Z,12.90
2023-04-13T13:54:35.056Z,12.50
2023-04-13T13:57:21.817Z,12.30
2023-04-13T14:00:16.284Z,12.00
2023-04-13T14:03:03.340Z,11.70
2023-04-13T14:05:50.455Z,11.80
2023-04-13T14:08:37.070Z,12.00
2023-04-13T14:11:26.174Z,12.20
2023-04-13T14:14:21.151Z,12.60
2023-04-13T14:17:09.241Z,12.70
2023-04-13T14:19:56.306Z,12.80
2023-04-13T14:22:42.726Z,12.90
2023-04-13T14:25:29.666Z,13.00
2023-04-13T14:28:17.543Z,12.90
2023-04-13T14:31:04.616Z,13.00
2023-04-13T14:33:51.818Z,12.80
2023-04-13T14:36:39.058Z,12.80
2023-04-13T14:39:26.119Z,12.90
2023-04-13T14:42:13.139Z,12.90
2023-04-13T14:45:01.152Z,13.20
2023-04-13T14:47:48.093Z,13.30
2023-04-13T14:50:34.968Z,13.50
2023-04-13T14:53:21.449Z,13.60
2023-04-13T14:56:08.000Z,13.60
2023-04-13T14:58:54.545Z,13.60
2023-04-13T15:01:42.477Z,13.50
2023-04-13T15:04:29.798Z,13.30
2023-04-13T15:07:18.904Z,13.20
2023-04-13T15:10:08.451Z,13.30
2023-04-13T15:12:55.331Z,13.20
2023-04-13T15:15:42.057Z,13.40
2023-04-13T15:18:30.413Z,13.60
2023-04-13T15:21:17.206Z,13.80
2023-04-13T15:24:04.360Z,13.80
2023-04-13T15:26:50.801Z,13.80
2023-04-13T15:29:37.322Z,13.80
2023-04-13T15:32:24.534Z,13.70
2023-04-13T15:35:13.794Z,13.70
2023-04-13T15:38:02.740Z,13.70
2023-04-13T15:40:49.631Z,13.60
2023-04-13T15:43:36.429Z,13.60
2023-04-13T15:46:23.170Z,13.60
2023-04-13T15:49:09.831Z,13.50
2023-04-13T15:51:57.575Z,13.40
2023-04-13T15:54:44.565Z,13.40
2023-04-13T15:57:31.057Z,13.20
2023-04-13T16:00:18.309Z,13.20
2023-04-13T16:03:05.324Z,13.20
2023-04-13T16:05:52.446Z,13.20
2023-04-13T16:08:40.599Z,13.10
2023-04-13T16:11:28.841Z,12.90
2023-04-13T16:14:17.333Z,12.80
2023-04-13T16:17:04.582Z,12.90
2023-04-13T16:19:51.606Z,12.90
2023-04-13T16:22:38.382Z,12.90
2023-04-13T16:25:26.690Z,12.90
2023-04-13T16:28:13.334Z,12.80
2023-04-13T16:31:00.870Z,12.70
2023-04-13T16:33:47.392Z,12.50
2023-04-13T16:36:34.378Z,12.40
2023-04-13T16:39:21.905Z,12.40
2023-04-13T16:42:10.006Z,12.40
2023-04-13T16:44:56.985Z,12.40
2023-04-13T16:47:43.267Z,12.40
2023-04-13T16:50:31.977Z,12.40
2023-04-13T16:53:19.126Z,12.30
2023-04-13T16:56:06.381Z,11.90
2023-04-13T16:58:54.164Z,11.80
2023-04-13T17:01:40.658Z,11.70
2023-04-13T17:04:27.584Z,11.50
2023-04-13T17:07:14.414Z,11.40
2023-04-13T17:10:00.844Z,11.40
2023-04-13T17:12:48.112Z,11.30
2023-04-13T17:15:35.970Z,11.20
2023-04-13T17:18:23.043Z,11.10
2023-04-13T17:21:09.694Z,11.00
2023-04-13T17:23:56.593Z,11.00
2023-04-13T17:26:43.088Z,10.90
2023-04-13T17:29:29.678Z,10.90
2023-04-13T17:32:19.579Z,10.90
2023-04-13T17:35:07.364Z,10.80
2023-04-13T17:37:53.956Z,10.80
2023-04-13T17:40:40.556Z,10.80
2023-04-13T17:43:27.136Z,10.80
2023-04-13T17:46:13.942Z,10.70
2023-04-13T17:49:02.526Z,10.80
2023-04-13T17:51:49.845Z,10.80
2023-04-13T17:54:37.491Z,10.80
2023-04-13T17:57:24.309Z,10.90
2023-04-13T18:00:12.723Z,10.90
2023-04-13T18:02:59.823Z,10.80
2023-04-13T18:05:49.170Z,10.60
2023-04-13T18:08:35.889Z,10.40
2023-04-13T18:11:22.568Z,10.30
2023-04-13T18:14:10.597Z,10.20
2023-04-13T18:16:57.629Z,10.30
2023-04-13T18:19:44.120Z,10.30
2023-04-13T18:22:32.859Z,10.40
2023-04-13T18:25:19.527Z,10.20
2023-04-13T18:28:06.065Z,10.40
2023-04-13T18:30:53.011Z,10.50
2023-04-13T18:33:40.071Z,10.60
2023-04-13T18:36:26.968Z,10.70
2023-04-13T18:39:15.282Z,10.70
2023-04-13T18:42:01.764Z,10.80
2023-04-13T18:44:48.880Z,10.80
2023-04-13T18:47:36.217Z,10.80
2023-04-13T18:50:22.911Z,10.60
2023-04-13T18:53:09.322Z,10.70
2023-04-13T18:55:59.714Z,10.70
2023-04-13T18:58:46.653Z,10.70
2023-04-13T19:01:33.595Z,10.70
2023-04-13T19:04:20.292Z,10.60
2023-04-13T19:07:08.863Z,10.30
2023-04-13T19:09:55.461Z,10.20
2023-04-13T19:12:43.645Z,10.20
2023-04-13T19:15:30.767Z,10.30
2023-04-13T19:18:18.154Z,10.00
2023-04-13T19:21:06.444Z,9.60
2023-04-13T19:23:52.970Z,9.30
2023-04-13T19:26:40.282Z,9.20
2023-04-13T19:29:30.166Z,9.10
2023-04-13T19:32:17.191Z,9.00
2023-04-13T19:35:03.847Z,9.00
2023-04-13T19:37:50.295Z,9.00
2023-04-13T19:40:37.248Z,9.20
2023-04-13T19:43:25.078Z,9.20
2023-04-13T19:46:13.301Z,9.20
2023-04-13T19:49:01.858Z,9.40
2023-04-13T19:51:48.247Z,9.60
2023-04-13T19:54:35.258Z,9.70
2023-04-13T19:57:22.896Z,9.70
2023-04-13T20:00:17.103Z,9.50
2023-04-13T20:03:05.769Z,9.50
2023-04-13T20:05:53.182Z,9.30
2023-04-13T20:08:40.096Z,9.30
2023-04-13T20:11:26.766Z,9.20
2023-04-13T20:14:13.036Z,9.20
2023-04-13T20:16:59.489Z,9.10
2023-04-13T20:19:47.336Z,8.80
2023-04-13T20:22:34.218Z,8.60
2023-04-13T20:25:20.794Z,8.60
2023-04-13T20:28:07.369Z,8.60
2023-04-13T20:30:53.952Z,8.60
2023-04-13T20:33:40.872Z,8.60
2023-04-13T20:36:28.825Z,8.60
2023-04-13T20:39:18.337Z,8.60
2023-04-13T20:42:05.912Z,8.70
2023-04-13T20:44:57.455Z,8.60
2023-04-13T20:47:44.910Z,8.50
2023-04-13T20:50:33.663Z,8.40
2023-04-13T20:53:23.824Z,8.40
2023-04-13T20:56:10.662Z,8.50
2023-04-13T20:58:58.136Z,8.30
2023-04-13T21:01:45.193Z,8.10
2023-04-13T21:04:32.017Z,7.80
2023-04-13T21:07:18.930Z,7.40
2023-04-13T21:10:08.526Z,7.50
2023-04-13T21:12:55.428Z,7.70
2023-04-13T21:15:42.028Z,7.90
2023-04-13T21:18:28.496Z,8.00
2023-04-13T21:21:14.871Z,7.90
2023-04-13T21:24:01.521Z,7.60
2023-04-13T21:26:49.571Z,7.70
2023-04-13T21:29:36.132Z,7.80
2023-04-13T21:32:23.056Z,7.80
2023-04-13T21:35:10.700Z,7.70
2023-04-13T21:37:57.278Z,7.70
2023-04-13T21:40:44.078Z,7.60
2023-04-13T21:43:31.743Z,7.60
2023-04-13T21:46:19.228Z,7.40
2023-04-13T21:49:06.182Z,7.20
2023-04-13T21:51:52.452Z,7.00
2023-04-13T21:54:38.833Z,6.90
2023-04-13T21:57:25.402Z,6.80
2023-04-13T22:00:14.818Z,6.90
2023-04-13T22:03:01.902Z,7.10
2023-04-13T22:05:48.666Z,7.20
2023-04-13T22:08:35.397Z,7.20
2023-04-13T22:11:22.356Z,7.10
2023-04-13T22:14:09.025Z,7.20
2023-04-13T22:16:59.290Z,7.30
2023-04-13T22:19:45.810Z,7.30
2023-04-13T22:22:32.148Z,7.30
2023-04-13T22:25:18.774Z,7.30
2023-04-13T22:28:05.776Z,7.40
2023-04-13T22:30:52.779Z,7.40
2023-04-13T22:33:40.979Z,7.20
2023-04-13T22:36:27.224Z,7.10
2023-04-13T22:39:13.775Z,7.00
2023-04-13T22:42:00.621Z,6.90
2023-04-13T22:44:46.867Z,6.70
2023-04-13T22:47:33.371Z,6.60
2023-04-13T22:50:21.304Z,6.50
2023-04-13T22:53:07.710Z,6.50
2023-04-13T22:55:54.169Z,6.30
2023-04-13T22:58:41.066Z,6.40
2023-04-13T23:01:27.758Z,6.20
2023-04-13T23:04:16.000Z,6.20
2023-04-13T23:07:04.104Z,6.20
2023-04-13T23:09:52.513Z,6.20
2023-04-13T23:12:38.876Z,6.20
2023-04-13T23:15:25.574Z,6.40
2023-04-13T23:18:12.196Z,6.50
2023-04-13T23:20:58.534Z,6.50
2023-04-13T23:23:46.349Z,6.50
2023-04-13T23:26:33.066Z,6.70
2023-04-13T23:29:22.049Z,6.70
2023-04-13T23:32:08.582Z,6.70
2023-04-13T23:34:55.542Z,6.70
2023-04-13T23:37:43.350Z,6.80
2023-04-13T23:40:31.120Z,6.80
2023-04-13T23:43:17.478Z,6.90
2023-04-13T23:46:04.478Z,6.90
2023-04-13T23:48:51.388Z,7.00
2023-04-13T23:51:37.694Z,7.00
2023-04-13T23:54:24.164Z,7.10
2023-04-13T23:57:12.740Z,7.10
2023-04-13T23:59:59.534Z,7.10
